createdAt,value
2019-02-23T04:09:02.979Z,8.10
2019-02-23T04:11:33.590Z,5.53
2019-02-23T04:14:04.109Z,10.58
2019-02-23T04:16:34.705Z,4.17
2019-02-23T04:19:05.213Z,3.87
2019-02-23T04:21:35.756Z,5.03
2019-02-23T04:24:06.323Z,9.95
2019-02-23T04:26:36.837Z,3.50
2019-02-23T04:29:07.327Z,5.53
2019-02-23T04:31:37.897Z,7.70
2019-02-23T04:34:08.412Z,3.27
2019-02-23T04:36:38.921Z,4.78
2019-02-23T04:39:09.720Z,5.17
2019-02-23T04:41:40.216Z,5.78
2019-02-23T04:44:10.734Z,3.67
2019-02-23T04:46:41.283Z,4.92
2019-02-23T04:49:11.820Z,5.83
2019-02-23T04:51:42.350Z,5.25
2019-02-23T04:54:12.946Z,6.93
2019-02-23T04:56:43.444Z,4.60
2019-02-23T04:59:13.935Z,4.78
2019-02-23T05:01:44.539Z,6.65
2019-02-23T05:04:14.982Z,6.75
2019-02-23T05:06:45.460Z,4.53
2019-02-23T05:09:16.049Z,5.83
2019-02-23T05:11:46.573Z,5.10
2019-02-23T05:14:17.103Z,4.95
2019-02-23T05:16:47.754Z,5.42
2019-02-23T05:19:18.260Z,7.77
2019-02-23T05:21:48.818Z,6.25
2019-02-23T05:24:19.412Z,7.45
2019-02-23T05:26:49.904Z,7.42
2019-02-23T05:29:20.418Z,4.40
2019-02-23T05:31:50.940Z,5.00
2019-02-23T05:34:21.503Z,5.58
2019-02-23T05:36:52.018Z,5.47
2019-02-23T05:39:22.609Z,3.98
2019-02-23T05:41:53.158Z,5.90
2019-02-23T05:44:23.652Z,5.93
2019-02-23T05:46:54.256Z,5.78
2019-02-23T05:49:24.704Z,3.87
2019-02-23T05:51:55.188Z,4.90
2019-02-23T05:54:25.706Z,6.20
2019-02-23T05:56:56.209Z,5.78
2019-02-23T05:59:26.715Z,5.97
2019-02-23T06:01:57.239Z,5.53
2019-02-23T06:04:27.788Z,5.05
2019-02-23T06:06:58.296Z,4.62
2019-02-23T06:09:28.947Z,5.35
2019-02-23T06:11:59.430Z,5.58
2019-02-23T06:14:29.952Z,4.70
2019-02-23T06:17:00.528Z,5.60
2019-02-23T06:19:31.133Z,5.03
2019-02-23T06:22:01.681Z,6.20
2019-02-23T06:24:32.231Z,4.75
2019-02-23T06:27:02.820Z,4.70
2019-02-23T06:29:33.358Z,5.47
2019-02-23T06:32:03.917Z,7.95
2019-02-23T06:34:34.449Z,4.83
2019-02-23T06:37:05.004Z,5.25
2019-02-23T06:39:35.614Z,7.25
2019-02-23T06:42:06.104Z,7.75
2019-02-23T06:44:36.727Z,7.28
2019-02-23T06:47:07.320Z,5.57
2019-02-23T06:49:37.881Z,5.55
2019-02-23T06:52:08.415Z,7.37
2019-02-23T06:54:38.991Z,5.60
2019-02-23T06:57:09.514Z,7.78
2019-02-23T06:59:40.072Z,6.40
2019-02-23T07:02:10.868Z,5.83
2019-02-23T07:04:41.301Z,10.23
2019-02-23T07:07:11.806Z,7.55
2019-02-23T07:09:42.361Z,7.60
2019-02-23T07:12:12.905Z,9.60
2019-02-23T07:14:43.445Z,8.25
2019-02-23T07:17:13.987Z,7.08
2019-02-23T07:19:44.511Z,10.57
2019-02-23T07:22:16.100Z,10.48
2019-02-23T07:24:46.610Z,8.00
2019-02-23T07:27:17.186Z,7.33
2019-02-23T07:29:47.749Z,6.67
2019-02-23T07:32:18.381Z,8.30
2019-02-23T07:34:48.939Z,6.12
2019-02-23T07:37:19.518Z,12.35
2019-02-23T07:39:50.128Z,10.70
2019-02-23T07:42:20.567Z,13.53
2019-02-23T07:44:51.068Z,13.10
2019-02-23T07:47:21.628Z,10.82
2019-02-23T07:49:52.143Z,11.47
2019-02-23T07:52:26.285Z,10.68
2019-02-23T07:54:55.147Z,14.07
2019-02-23T07:57:25.646Z,12.55
2019-02-23T07:59:56.170Z,10.78
2019-02-23T08:02:36.135Z,15.23
2019-02-23T08:05:08.253Z,14.58
2019-02-23T08:07:39.966Z,10.90
2019-02-23T08:10:11.262Z,13.95
2019-02-23T08:12:41.888Z,12.03
2019-02-23T08:15:12.566Z,12.25
2019-02-23T08:17:43.029Z,10.55
2019-02-23T08:20:13.536Z,12.15
2019-02-23T08:22:44.042Z,10.70
2019-02-23T08:25:14.550Z,12.82
2019-02-23T08:27:45.071Z,13.30
2019-02-23T08:30:15.596Z,9.57
2019-02-23T08:32:46.151Z,11.93
2019-02-23T08:35:16.650Z,11.50
2019-02-23T08:37:47.217Z,10.25
2019-02-23T08:40:17.764Z,10.55
2019-02-23T08:42:48.286Z,8.93
2019-02-23T08:45:18.808Z,9.70
2019-02-23T08:47:49.306Z,10.03
2019-02-23T08:50:19.963Z,10.68
2019-02-23T08:52:50.568Z,16.17
2019-02-23T08:55:21.059Z,8.40
2019-02-23T08:57:51.587Z,12.53
2019-02-23T09:00:22.112Z,11.80
2019-02-23T09:02:52.571Z,7.57
2019-02-23T09:05:23.154Z,12.68
2019-02-23T09:07:53.651Z,9.07
2019-02-23T09:10:24.141Z,9.78
2019-02-23T09:12:54.661Z,7.72
2019-02-23T09:15:25.207Z,11.22
2019-02-23T09:17:55.770Z,11.95
2019-02-23T09:20:29.411Z,12.03
2019-02-23T09:23:00.472Z,9.90
2019-02-23T09:25:31.016Z,8.08
2019-02-23T09:28:01.636Z,7.53
2019-02-23T09:30:32.124Z,8.10
2019-02-23T09:33:02.700Z,5.87
2019-02-23T09:35:33.299Z,6.53
2019-02-23T09:38:03.888Z,8.20
2019-02-23T09:40:34.437Z,7.80
2019-02-23T09:43:04.961Z,5.72
2019-02-23T09:45:35.841Z,5.72
2019-02-23T09:48:06.394Z,8.73
2019-02-23T09:50:36.926Z,7.22
2019-02-23T09:53:11.255Z,6.45
2019-02-23T09:55:39.595Z,5.60
2019-02-23T09:58:10.104Z,4.40
2019-02-23T10:00:40.687Z,4.30
2019-02-23T10:03:11.237Z,6.25
2019-02-23T10:05:41.760Z,4.95
2019-02-23T10:08:12.290Z,6.62
2019-02-23T10:10:43.083Z,6.60
2019-02-23T10:13:13.548Z,4.05
2019-02-23T10:15:44.054Z,4.80
2019-02-23T10:18:14.571Z,5.70
2019-02-23T10:20:45.067Z,4.87
2019-02-23T10:23:22.145Z,6.33
2019-02-23T10:25:47.791Z,6.15
2019-02-23T10:28:18.287Z,3.70
2019-02-23T10:30:48.763Z,6.95
2019-02-23T10:33:19.341Z,6.20
2019-02-23T10:35:49.868Z,6.40
2019-02-23T10:38:20.442Z,6.40
2019-02-23T10:40:50.923Z,10.08
2019-02-23T10:43:21.428Z,9.90
2019-02-23T10:45:52.097Z,5.08
2019-02-23T10:48:22.790Z,7.60
2019-02-23T10:50:54.425Z,5.95
2019-02-23T10:53:32.549Z,5.50
2019-02-23T10:55:57.466Z,5.95
2019-02-23T10:58:27.976Z,7.50
2019-02-23T11:00:58.478Z,7.12
2019-02-23T11:03:29.112Z,7.20
2019-02-23T11:05:59.649Z,6.17
2019-02-23T11:08:30.095Z,6.92
2019-02-23T11:11:00.601Z,7.08
2019-02-23T11:13:31.086Z,6.53
2019-02-23T11:16:01.563Z,6.97
2019-02-23T11:18:32.709Z,5.85
2019-02-23T11:21:03.316Z,8.08
2019-02-23T11:23:43.879Z,7.92
2019-02-23T11:26:06.947Z,6.03
2019-02-23T11:28:37.587Z,5.62
2019-02-23T11:31:08.072Z,6.72
2019-02-23T11:33:38.636Z,6.47
2019-02-23T11:36:09.148Z,5.30
2019-02-23T11:38:39.781Z,6.40
2019-02-23T11:41:10.868Z,6.00
2019-02-23T11:43:41.347Z,6.60
2019-02-23T11:46:11.910Z,9.58
2019-02-23T11:48:42.962Z,5.08
2019-02-23T11:51:13.462Z,5.60
2019-02-23T11:53:54.394Z,7.08
2019-02-23T11:56:16.231Z,5.53
2019-02-23T11:58:46.709Z,5.15
2019-02-23T12:01:17.242Z,5.92
2019-02-23T12:03:49.842Z,5.95
2019-02-23T12:06:28.865Z,6.43
2019-02-23T12:09:11.549Z,4.63
2019-02-23T12:11:49.662Z,4.25
2019-02-23T12:15:05.797Z,3.83
2019-02-23T12:17:46.713Z,4.80
2019-02-23T12:20:19.850Z,6.72
2019-02-23T12:22:50.625Z,9.38
2019-02-23T12:25:21.108Z,6.87
2019-02-23T12:27:52.652Z,6.30
2019-02-23T12:35:09.478Z,4.20
2019-02-23T12:41:29.544Z,5.62
2019-02-23T12:44:00.827Z,6.92
2019-02-23T12:46:32.346Z,9.85
2019-02-23T12:49:04.037Z,6.90
2019-02-23T12:51:34.532Z,5.60
2019-02-23T12:54:05.054Z,5.37
2019-02-23T12:56:35.604Z,6.25
2019-02-23T12:59:06.131Z,4.45
2019-02-23T13:01:36.647Z,7.50
2019-02-23T13:04:07.238Z,4.35
2019-02-23T13:06:37.791Z,7.03
2019-02-23T13:09:24.805Z,6.15
2019-02-23T13:12:25.047Z,10.35
2019-02-23T13:15:41.177Z,7.72
2019-02-23T13:19:31.695Z,7.70
2019-02-23T13:22:17.282Z,7.17
2019-02-23T13:25:52.295Z,7.03
2019-02-23T13:28:56.839Z,6.00
2019-02-23T13:32:21.322Z,4.47
2019-02-23T13:35:20.788Z,8.08
2019-02-23T13:38:44.807Z,9.70
2019-02-23T13:41:56.114Z,6.70
2019-02-23T13:45:15.839Z,5.60
2019-02-23T13:48:40.681Z,4.70
2019-02-23T13:52:14.827Z,5.60
2019-02-23T13:55:45.690Z,4.50
2019-02-23T13:59:25.137Z,9.28
2019-02-23T14:02:51.990Z,6.90
2019-02-23T14:05:46.523Z,7.22
2019-02-23T14:09:17.489Z,6.08
2019-02-23T14:12:56.820Z,7.67
2019-02-23T14:16:30.105Z,5.57
2019-02-23T14:19:35.468Z,5.70
2019-02-23T14:23:14.992Z,6.97
2019-02-23T14:26:43.416Z,5.97
2019-02-23T14:30:29.043Z,5.75
2019-02-23T14:33:50.778Z,5.72
2019-02-23T14:37:01.239Z,8.28
2019-02-23T14:40:15.243Z,7.70
2019-02-23T14:43:47.130Z,6.92
2019-02-23T14:47:14.303Z,10.95
2019-02-23T14:50:30.643Z,6.70
2019-02-23T14:54:06.178Z,5.80
2019-02-23T14:57:14.434Z,8.58
2019-02-23T15:00:39.829Z,4.90
2019-02-23T15:03:56.995Z,9.80
2019-02-23T15:07:48.843Z,6.30
2019-02-23T15:11:13.859Z,7.15
2019-02-23T15:14:46.471Z,7.90
2019-02-23T15:17:55.108Z,6.30
2019-02-23T15:21:40.773Z,9.10
2019-02-23T15:24:50.983Z,5.95
2019-02-23T15:28:30.228Z,6.58
2019-02-23T15:31:19.701Z,8.23
2019-02-23T15:34:29.504Z,6.53
2019-02-23T15:37:17.782Z,7.55
2019-02-23T15:40:34.600Z,9.93
2019-02-23T15:43:57.545Z,6.65
2019-02-23T15:47:04.358Z,8.13
2019-02-23T15:49:36.554Z,7.37
2019-02-23T15:52:08.649Z,9.63
2019-02-23T15:54:39.188Z,10.45
2019-02-23T15:57:09.714Z,9.70
2019-02-23T15:59:40.160Z,9.53
2019-02-23T16:02:10.621Z,6.45
2019-02-23T16:04:41.116Z,7.92
2019-02-23T16:07:11.606Z,7.35
2019-02-23T16:12:09.678Z,7.97
2019-02-23T16:14:40.343Z,9.33
2019-02-23T16:17:10.845Z,7.07
2019-02-23T16:19:44.587Z,7.62
2019-02-23T16:22:18.566Z,6.05
2019-02-23T16:24:47.830Z,6.60
2019-02-23T16:27:18.462Z,8.45
2019-02-23T16:29:48.961Z,9.40
2019-02-23T16:32:19.505Z,9.05
2019-02-23T16:34:50.041Z,10.90
2019-02-23T16:37:20.726Z,5.58
2019-02-23T16:39:51.352Z,6.85
2019-02-23T16:42:21.926Z,7.92
2019-02-23T16:44:52.331Z,7.08
2019-02-23T16:47:22.851Z,6.85
2019-02-23T16:49:53.467Z,8.33
2019-02-23T16:52:23.972Z,10.23
2019-02-23T16:54:54.583Z,9.13
2019-02-23T16:57:25.181Z,8.20
2019-02-23T16:59:55.767Z,9.15
2019-02-23T17:02:26.400Z,6.92
2019-02-23T17:04:57.000Z,6.80
2019-02-23T17:07:27.568Z,7.05
2019-02-23T17:09:58.353Z,9.50
2019-02-23T17:12:28.985Z,9.43
2019-02-23T17:14:59.431Z,10.20
2019-02-23T17:17:30.342Z,11.60
2019-02-23T17:20:00.852Z,9.93
2019-02-23T17:22:31.417Z,11.57
2019-02-23T17:25:01.981Z,8.68
2019-02-23T17:27:36.182Z,9.43
2019-02-23T17:30:05.000Z,9.50
2019-02-23T17:32:35.515Z,9.43
2019-02-23T17:35:06.318Z,8.65
2019-02-23T17:37:36.848Z,11.05
2019-02-23T17:40:07.486Z,7.67
2019-02-23T17:42:38.077Z,9.65
2019-02-23T17:45:10.641Z,11.05
2019-02-23T17:47:41.177Z,8.83
2019-02-23T17:50:12.113Z,10.08
2019-02-23T17:52:42.677Z,9.65
2019-02-23T17:55:13.155Z,8.75
2019-02-23T17:57:43.753Z,8.98
2019-02-23T18:00:16.696Z,8.73
2019-02-23T18:02:47.262Z,11.05
2019-02-23T18:05:17.848Z,8.95
2019-02-23T18:07:48.597Z,11.22
2019-02-23T18:10:19.266Z,9.87
2019-02-23T18:12:49.844Z,9.40
2019-02-23T18:15:20.497Z,9.95
2019-02-23T18:17:50.985Z,12.80
2019-02-23T18:20:21.591Z,12.20
2019-02-23T18:22:52.599Z,11.30
2019-02-23T18:25:23.165Z,12.35
2019-02-23T18:27:53.933Z,11.85
2019-02-23T18:30:24.453Z,9.60
2019-02-23T18:32:55.012Z,10.98
2019-02-23T18:35:25.543Z,9.55
2019-02-23T18:37:56.031Z,9.93
2019-02-23T18:40:27.290Z,12.18
2019-02-23T18:42:58.078Z,11.55
2019-02-23T18:45:28.489Z,11.30
2019-02-23T18:47:59.694Z,15.95
2019-02-23T18:50:30.384Z,7.62
2019-02-23T18:53:01.069Z,11.70
2019-02-23T18:55:40.606Z,15.10
2019-02-23T18:58:04.470Z,9.85
2019-02-23T19:00:35.018Z,9.75
2019-02-23T19:06:19.275Z,9.75
2019-02-23T19:08:53.318Z,12.35
2019-02-23T19:11:26.156Z,11.93
2019-02-23T19:13:56.707Z,10.30
2019-02-23T19:16:27.333Z,9.50
2019-02-23T19:18:57.861Z,10.25
2019-02-23T19:21:28.421Z,13.15
2019-02-23T19:23:59.033Z,10.25
2019-02-23T19:26:37.832Z,10.67
2019-02-23T19:29:01.873Z,10.13
2019-02-23T19:31:32.398Z,11.28
2019-02-23T19:34:03.068Z,10.50
2019-02-23T19:36:33.779Z,12.23
2019-02-23T19:39:04.665Z,8.50
2019-02-23T19:41:35.214Z,11.40
2019-02-23T19:44:06.330Z,11.23
2019-02-23T19:46:43.025Z,8.28
2019-02-23T19:49:13.477Z,9.88
2019-02-23T19:51:44.089Z,10.63
2019-02-23T19:54:15.604Z,9.80
2019-02-23T19:56:47.009Z,11.48
2019-02-23T19:59:17.687Z,11.25
2019-02-23T20:01:48.292Z,9.08
2019-02-23T20:04:18.864Z,12.43
2019-02-23T20:06:49.407Z,9.05
2019-02-23T20:09:19.991Z,12.63
2019-02-23T20:11:50.495Z,10.25
2019-02-23T20:14:21.105Z,10.78
2019-02-23T20:16:51.626Z,15.45
2019-02-23T20:19:22.127Z,9.58
2019-02-23T20:21:52.647Z,13.43
2019-02-23T20:24:23.244Z,9.75
2019-02-23T20:26:55.822Z,11.43
2019-02-23T20:29:26.004Z,9.20
2019-02-23T20:31:56.554Z,9.58
2019-02-23T20:34:27.077Z,12.85
2019-02-23T20:36:57.649Z,11.67
2019-02-23T20:39:28.240Z,10.70
2019-02-23T20:41:58.746Z,7.65
2019-02-23T20:44:29.307Z,10.03
2019-02-23T20:46:59.895Z,9.93
2019-02-23T20:49:30.381Z,10.80
2019-02-23T20:52:01.182Z,7.75
2019-02-23T20:54:31.792Z,10.85
2019-02-23T20:57:05.253Z,14.28
2019-02-23T20:59:34.648Z,10.10
2019-02-23T21:02:05.242Z,10.13
2019-02-23T21:04:35.746Z,9.03
2019-02-23T21:07:08.229Z,14.10
2019-02-23T21:09:39.366Z,11.95
2019-02-23T21:12:09.941Z,17.23
2019-02-23T21:14:40.512Z,14.30
2019-02-23T21:17:11.100Z,15.72
2019-02-23T21:19:41.624Z,14.38
2019-02-23T21:22:13.565Z,11.65
2019-02-23T21:24:44.198Z,8.90
2019-02-23T21:27:14.731Z,10.35
2019-02-23T21:29:45.299Z,12.98
2019-02-23T21:32:15.931Z,7.80
2019-02-23T21:34:46.431Z,9.03
2019-02-23T21:37:16.993Z,10.90
2019-02-23T21:39:47.578Z,11.38
2019-02-23T21:42:18.080Z,11.10
2019-02-23T21:44:48.501Z,11.22
2019-02-23T21:47:19.080Z,9.90
2019-02-23T21:49:49.625Z,10.63
2019-02-23T21:52:20.117Z,8.85
2019-02-23T21:54:50.667Z,10.75
2019-02-23T21:57:22.418Z,10.90
2019-02-23T21:59:53.189Z,9.38
2019-02-23T22:02:23.821Z,13.25
2019-02-23T22:04:54.589Z,8.27
2019-02-23T22:07:25.969Z,9.15
2019-02-23T22:10:15.608Z,10.00
2019-02-23T22:12:46.313Z,11.15
2019-02-23T22:15:16.926Z,12.58
2019-02-23T22:17:47.517Z,9.20
2019-02-23T22:20:18.000Z,11.12
2019-02-23T22:22:48.572Z,12.28
2019-02-23T22:25:19.165Z,10.23
2019-02-23T22:27:49.846Z,11.90
2019-02-23T22:30:20.527Z,12.47
2019-02-23T22:32:51.053Z,7.33
2019-02-23T22:35:21.831Z,11.83
2019-02-23T22:37:52.501Z,11.45
2019-02-23T22:40:23.244Z,14.80
2019-02-23T22:42:53.818Z,13.48
2019-02-23T22:45:24.474Z,14.65
2019-02-23T22:47:55.091Z,14.28
2019-02-23T22:50:25.638Z,17.92
2019-02-23T22:52:56.250Z,10.50
2019-02-23T22:55:26.878Z,11.93
2019-02-23T22:57:57.490Z,13.22
2019-02-23T23:00:38.243Z,12.40
2019-02-23T23:03:08.942Z,13.72
2019-02-23T23:05:39.562Z,13.90
2019-02-23T23:08:10.414Z,12.20
2019-02-23T23:10:40.990Z,13.38
2019-02-23T23:13:14.740Z,15.73
2019-02-23T23:15:45.339Z,14.85
2019-02-23T23:18:15.974Z,10.72
2019-02-23T23:20:46.600Z,15.80
2019-02-23T23:23:18.107Z,15.18
2019-02-23T23:25:48.731Z,13.25
2019-02-23T23:28:22.132Z,13.48
2019-02-23T23:31:14.711Z,16.97
2019-02-23T23:33:45.375Z,13.88
2019-02-23T23:36:15.933Z,14.55
2019-02-23T23:38:46.884Z,14.65
2019-02-23T23:41:17.453Z,12.73
2019-02-23T23:43:48.033Z,15.32
2019-02-23T23:46:18.663Z,15.20
2019-02-23T23:48:49.605Z,14.60
2019-02-23T23:51:20.185Z,18.97
2019-02-23T23:53:51.222Z,16.27
2019-02-23T23:56:21.778Z,15.65
2019-02-23T23:58:52.829Z,14.03
